Sunday, April 22, 2018, 1:58 PM EDT

KUNV, State College, University Park Airport

Location: State College, PA, United States Lat: 40.85
Local Time: 1:58 PM EDT (17:58 GMT) Lon: -77.85
Time Zone: US/Eastern Elev: 1240 ft

Show me the last for .
Show Decoded

2018-04-22 12:53 METAR KUNV 221653Z 00000KT 10SM SKC 14/M04 A3038 =
2018-04-22 11:53 METAR KUNV 221553Z 00000KT 10SM SKC 14/M04 A3040 =
2018-04-22 10:53 METAR KUNV 221453Z 00000KT 10SM SKC 12/M04 A3041 =
2018-04-22 09:53 METAR KUNV 221353Z 00000KT 10SM SKC 10/M04 A3042 =
2018-04-22 08:53 METAR KUNV 221253Z 00000KT 10SM SKC 07/M01 A3043 =
2018-04-22 07:53 METAR KUNV 221153Z 00000KT 10SM SKC 04/M03 A3042 =
2018-04-22 06:53 METAR KUNV 221053Z 00000KT 10SM SKC 01/M05 A3040 =
2018-04-22 05:53 METAR KUNV 220953Z 00000KT 10SM SKC 03/M05 A3039 =
2018-04-22 05:35 METAR KUNV 220935Z AUTO 00000KT 10SM CLR 03/M05 A3039 RMK AO2 T00301050 =
2018-04-22 05:15 METAR KUNV 220915Z AUTO 00000KT 10SM CLR 03/M05 A3039 RMK AO2 T00341050 =
2018-04-22 04:55 METAR KUNV 220855Z AUTO 00000KT 10SM CLR 03/M05 A3038 RMK AO2 T00281051 =
2018-04-22 04:35 METAR KUNV 220835Z AUTO 04004KT 10SM CLR 04/M05 A3038 RMK AO2 T00401048 =
2018-04-22 04:15 METAR KUNV 220815Z AUTO 03004KT 10SM CLR 04/M05 A3039 RMK AO2 T00401048 =
2018-04-22 03:55 METAR KUNV 220755Z AUTO 00000KT 10SM CLR 04/M05 A3038 RMK AO2 T00411048 =
2018-04-22 03:35 METAR KUNV 220735Z AUTO 05004KT 10SM CLR 05/M05 A3038 RMK AO2 T00511053 =
2018-04-22 03:15 METAR KUNV 220715Z AUTO 03005KT 10SM CLR 06/M05 A3038 RMK AO2 T00561055 =
2018-04-22 02:55 METAR KUNV 220655Z AUTO 03005KT 10SM CLR 06/M05 A3038 RMK AO2 T00551053 =
2018-04-22 02:35 METAR KUNV 220635Z AUTO 03005KT 10SM CLR 06/M06 A3038 RMK AO2 T00601057 =
2018-04-22 02:15 METAR KUNV 220615Z AUTO 04006KT 10SM CLR 06/M05 A3038 RMK AO2 T00571051 =
2018-04-22 01:55 METAR KUNV 220555Z AUTO 00000KT 10SM CLR 06/M06 A3038 RMK AO2 T00551057 10126
                 20055 =
2018-04-22 01:35 METAR KUNV 220535Z AUTO 05004KT 10SM CLR 07/M06 A3038 RMK AO2 T00691060 =
2018-04-22 01:15 METAR KUNV 220515Z AUTO 02007KT 10SM CLR 08/M06 A3038 RMK AO2 T00751059 =
2018-04-22 00:55 METAR KUNV 220455Z AUTO 03003KT 10SM CLR 07/M05 A3039 RMK AO2 T00701052 =
2018-04-22 00:35 METAR KUNV 220435Z AUTO 00000KT 10SM CLR 07/M05 A3038 RMK AO2 T00731051 =
2018-04-22 00:15 METAR KUNV 220415Z AUTO 00000KT 10SM CLR 07/M05 A3037 RMK AO2 T00731051 =
2018-04-21 23:55 METAR KUNV 220355Z AUTO 02006KT 10SM CLR 09/M06 A3037 RMK AO2 T00861062
                 401511015 =
2018-04-21 23:35 METAR KUNV 220335Z AUTO 04006KT 10SM CLR 09/M06 A3037 RMK AO2 T00851060 =
2018-04-21 23:15 METAR KUNV 220315Z AUTO 04004KT 10SM CLR 09/M06 A3037 RMK AO2 T00881061 =
2018-04-21 22:55 METAR KUNV 220255Z AUTO 02006KT 10SM CLR 10/M06 A3036 RMK AO2 T00971065 =
2018-04-21 22:35 METAR KUNV 220235Z AUTO 03005KT 10SM CLR 10/M06 A3035 RMK AO2 T01001065 =
2018-04-21 22:15 METAR KUNV 220215Z AUTO 04005KT 10SM CLR 10/M06 A3035 RMK AO2 T01021060 =
2018-04-21 21:53 METAR KUNV 220153Z 36003KT 10SM SKC 10/M06 A3035 =
2018-04-21 20:53 METAR KUNV 220053Z 00000KT 10SM SKC 12/M07 A3034 =
2018-04-21 19:53 METAR KUNV 212353Z 00000KT 10SM SKC 13/M07 A3032 =
2018-04-21 18:53 METAR KUNV 212253Z 36003KT 10SM SKC 14/M06 A3031 =
2018-04-21 17:53 METAR KUNV 212153Z 32006KT 10SM SKC 15/M06 A3031 =
2018-04-21 16:53 METAR KUNV 212053Z 33008KT 10SM SKC 15/M05 A3031 =
2018-04-21 15:53 METAR KUNV 211953Z 21006KT 10SM SKC 14/M05 A3033 =
2018-04-21 15:17 METAR KUNV 211917Z 17006KT 10SM SKC 13/M04 A3035 =
2018-04-21 14:53 METAR KUNV 211853Z 00000KT 10SM SKC 13/M05 A3036 =

Support USWX by starting your Amazon purchase here.